createdAt,value
2023-09-20T00:01:08.385Z,0.63
2023-09-20T00:03:37.005Z,0.60
2023-09-20T00:06:10.741Z,0.82
2023-09-20T00:08:39.543Z,0.70
2023-09-20T00:11:10.044Z,0.93
2023-09-20T00:13:38.722Z,0.43
2023-09-20T00:16:08.982Z,0.47
2023-09-20T00:18:37.645Z,0.68
2023-09-20T00:21:06.250Z,0.60
2023-09-20T00:23:34.807Z,0.85
2023-09-20T00:26:03.724Z,0.90
2023-09-20T00:28:34.432Z,0.70
2023-09-20T00:31:04.539Z,0.88
2023-09-20T00:33:33.499Z,0.50
2023-09-20T00:36:01.051Z,0.80
2023-09-20T00:38:29.709Z,1.00
2023-09-20T00:40:58.270Z,1.08
2023-09-20T00:43:28.853Z,0.95
2023-09-20T00:45:59.541Z,1.00
2023-09-20T00:48:30.581Z,0.70
2023-09-20T00:50:59.634Z,0.80
2023-09-20T00:53:29.589Z,0.52
2023-09-20T00:55:59.380Z,1.27
2023-09-20T00:58:28.078Z,0.60
2023-09-20T01:01:01.730Z,0.82
2023-09-20T01:03:30.696Z,1.00
2023-09-20T01:06:00.706Z,1.00
2023-09-20T01:08:29.287Z,1.25
2023-09-20T01:10:58.105Z,0.70
2023-09-20T01:13:26.676Z,1.25
2023-09-20T01:15:55.247Z,0.65
2023-09-20T01:18:25.153Z,0.88
2023-09-20T01:20:53.782Z,0.60
2023-09-20T01:23:23.762Z,0.68
2023-09-20T01:25:52.622Z,0.68
2023-09-20T01:28:21.558Z,0.70
2023-09-20T01:30:51.473Z,1.10
2023-09-20T01:33:20.242Z,0.73
2023-09-20T01:35:49.038Z,0.70
2023-09-20T01:38:17.689Z,0.85
2023-09-20T01:40:48.103Z,0.50
2023-09-20T01:43:16.801Z,0.95
2023-09-20T01:45:46.009Z,1.20
2023-09-20T01:48:15.383Z,0.60
2023-09-20T01:50:44.136Z,0.60
2023-09-20T01:53:16.050Z,0.65
2023-09-20T01:55:48.548Z,1.40
2023-09-20T01:58:18.187Z,0.80
2023-09-20T02:00:51.438Z,0.80
2023-09-20T02:03:21.485Z,0.80
2023-09-20T02:05:51.444Z,0.70
2023-09-20T02:08:20.574Z,0.73
2023-09-20T02:10:50.701Z,0.90
2023-09-20T02:13:20.006Z,0.73
2023-09-20T02:15:49.211Z,0.60
2023-09-20T02:18:18.236Z,0.80
2023-09-20T02:20:46.787Z,0.52
2023-09-20T02:23:16.606Z,0.50
2023-09-20T02:25:46.911Z,0.80
2023-09-20T02:28:18.078Z,0.77
2023-09-20T02:30:46.808Z,0.55
2023-09-20T02:33:18.566Z,0.70
2023-09-20T02:35:47.381Z,0.70
2023-09-20T02:38:16.019Z,0.75
2023-09-20T02:40:47.790Z,1.05
2023-09-20T02:43:18.424Z,0.70
2023-09-20T02:45:47.639Z,0.50
2023-09-20T02:48:18.028Z,0.65
2023-09-20T02:50:46.582Z,0.55
2023-09-20T02:53:15.580Z,0.80
2023-09-20T02:55:46.217Z,0.65
2023-09-20T02:58:15.531Z,0.88
2023-09-20T03:00:52.070Z,0.50
2023-09-20T03:03:24.667Z,1.35
2023-09-20T03:05:53.928Z,0.60
2023-09-20T03:08:22.608Z,0.60
2023-09-20T03:10:54.664Z,0.70
2023-09-20T03:13:27.615Z,1.00
2023-09-20T03:15:58.009Z,0.80
2023-09-20T03:18:28.941Z,0.60
2023-09-20T03:21:11.821Z,0.80
2023-09-20T03:23:41.788Z,0.80
2023-09-20T03:26:11.311Z,0.57
2023-09-20T03:28:42.467Z,0.90
2023-09-20T03:31:13.457Z,0.70
2023-09-20T03:33:45.947Z,0.60
2023-09-20T03:36:21.672Z,0.90
2023-09-20T03:38:52.357Z,0.90
2023-09-20T03:41:21.392Z,0.60
2023-09-20T03:43:49.977Z,0.90
2023-09-20T03:46:20.066Z,0.73
2023-09-20T03:48:49.846Z,0.85
2023-09-20T03:51:18.630Z,1.15
2023-09-20T03:53:51.006Z,0.70
2023-09-20T03:56:23.894Z,0.90
2023-09-20T03:58:52.636Z,0.82
2023-09-20T04:01:23.986Z,1.52
2023-09-20T04:03:54.197Z,1.00
2023-09-20T04:06:24.522Z,0.60
2023-09-20T04:08:53.867Z,1.23
2023-09-20T04:11:23.627Z,0.80
2023-09-20T04:13:54.029Z,0.70
2023-09-20T04:16:25.652Z,0.82
2023-09-20T04:18:54.250Z,0.80
2023-09-20T04:21:24.867Z,1.08
2023-09-20T04:23:53.444Z,1.35
2023-09-20T04:26:22.080Z,0.80
2023-09-20T04:28:50.980Z,0.90
2023-09-20T04:31:20.921Z,0.60
2023-09-20T04:33:50.919Z,0.88
2023-09-20T04:36:19.461Z,0.70
2023-09-20T04:38:48.127Z,1.13
2023-09-20T04:41:16.857Z,0.70
2023-09-20T04:43:45.518Z,0.80
2023-09-20T04:46:14.167Z,0.88
2023-09-20T04:48:43.081Z,0.95
2023-09-20T04:51:13.395Z,0.60
2023-09-20T04:53:42.108Z,0.77
2023-09-20T04:56:10.934Z,0.68
2023-09-20T04:58:40.171Z,1.10
2023-09-20T05:01:14.590Z,1.55
2023-09-20T05:06:14.263Z,1.00
2023-09-20T05:08:43.772Z,0.73
2023-09-20T05:11:14.561Z,1.17
2023-09-20T05:13:43.527Z,1.02
2023-09-20T05:16:12.829Z,0.82
2023-09-20T05:18:42.267Z,1.00
2023-09-20T05:21:12.119Z,1.10
2023-09-20T05:23:42.824Z,0.90
2023-09-20T05:26:12.122Z,1.27
2023-09-20T05:28:40.965Z,0.95
2023-09-20T05:31:09.684Z,0.80
2023-09-20T05:33:38.332Z,1.00
2023-09-20T05:36:08.297Z,1.05
2023-09-20T05:38:37.241Z,1.83
2023-09-20T05:41:08.692Z,0.85
2023-09-20T05:43:40.668Z,1.17
2023-09-20T05:46:11.097Z,1.15
2023-09-20T05:48:43.495Z,0.70
2023-09-20T05:51:15.655Z,0.77
2023-09-20T05:53:44.673Z,0.70
2023-09-20T05:56:16.088Z,0.75
2023-09-20T05:58:45.772Z,0.80
2023-09-20T06:01:14.566Z,1.10
2023-09-20T06:03:43.404Z,0.80
2023-09-20T06:06:12.009Z,1.13
2023-09-20T06:08:41.063Z,0.80
2023-09-20T06:11:09.852Z,1.50
2023-09-20T06:13:40.341Z,1.20
2023-09-20T06:16:10.571Z,1.02
2023-09-20T06:18:47.580Z,1.00
2023-09-20T06:21:24.965Z,1.23
2023-09-20T06:23:53.738Z,0.95
2023-09-20T06:26:22.332Z,1.33
2023-09-20T06:28:52.962Z,1.05
2023-09-20T06:31:21.670Z,1.35
2023-09-20T06:33:51.122Z,1.13
2023-09-20T06:36:20.938Z,0.95
2023-09-20T06:38:49.655Z,1.42
2023-09-20T06:41:19.302Z,1.33
2023-09-20T06:43:47.988Z,1.05
2023-09-20T06:46:19.331Z,0.73
2023-09-20T06:48:48.111Z,0.70
2023-09-20T06:51:18.595Z,0.98
2023-09-20T06:53:47.691Z,0.77
2023-09-20T06:56:16.457Z,1.25
2023-09-20T06:58:46.246Z,0.90
2023-09-20T07:01:15.112Z,0.88
2023-09-20T07:03:46.464Z,0.73
2023-09-20T07:06:15.593Z,1.10
2023-09-20T07:08:44.432Z,1.70
2023-09-20T07:11:13.805Z,0.85
2023-09-20T07:13:42.403Z,1.00
2023-09-20T07:16:11.651Z,0.80
2023-09-20T07:18:45.659Z,0.80
2023-09-20T07:21:15.944Z,0.82
2023-09-20T07:23:44.867Z,1.30
2023-09-20T07:26:13.956Z,1.27
2023-09-20T07:28:44.275Z,0.98
2023-09-20T07:31:12.908Z,0.90
2023-09-20T07:33:42.817Z,1.02
2023-09-20T07:36:14.716Z,0.65
2023-09-20T07:38:45.359Z,1.35
2023-09-20T07:41:15.225Z,1.35
2023-09-20T07:43:45.658Z,0.90
2023-09-20T07:46:16.777Z,0.80
2023-09-20T07:48:50.228Z,0.95
2023-09-20T07:51:25.452Z,0.93
2023-09-20T07:53:56.396Z,0.70
2023-09-20T07:56:25.964Z,1.10
2023-09-20T07:58:55.250Z,1.02
2023-09-20T08:01:26.030Z,1.20
2023-09-20T08:03:59.959Z,1.02
2023-09-20T08:06:30.674Z,0.90
2023-09-20T08:09:01.247Z,0.90
2023-09-20T08:11:30.950Z,1.20
2023-09-20T08:14:01.204Z,1.10
2023-09-20T08:16:51.895Z,0.90
2023-09-20T08:19:23.376Z,0.90
2023-09-20T08:21:53.042Z,0.70
2023-09-20T08:24:40.648Z,0.98
2023-09-20T08:27:26.521Z,0.90
2023-09-20T08:30:13.057Z,1.02
2023-09-20T08:32:59.454Z,1.08
2023-09-20T08:35:45.458Z,0.75
2023-09-20T08:38:31.594Z,0.80
2023-09-20T08:41:19.306Z,1.30
2023-09-20T08:44:05.557Z,1.50
2023-09-20T08:46:51.807Z,0.73
2023-09-20T08:49:38.361Z,0.77
2023-09-20T08:52:29.396Z,0.88
2023-09-20T08:55:17.253Z,0.70
2023-09-20T08:58:05.297Z,0.70
2023-09-20T09:00:35.634Z,0.95
2023-09-20T09:03:07.480Z,1.08
2023-09-20T09:05:36.408Z,0.98
2023-09-20T09:08:07.580Z,0.93
2023-09-20T09:10:36.247Z,1.00
2023-09-20T09:13:06.403Z,1.17
2023-09-20T09:15:36.259Z,0.93
2023-09-20T09:18:05.241Z,1.00
2023-09-20T09:20:37.946Z,0.65
2023-09-20T09:23:06.967Z,0.90
2023-09-20T09:25:36.808Z,0.70
2023-09-20T09:28:07.099Z,0.90
2023-09-20T09:30:35.982Z,1.15
2023-09-20T09:33:05.818Z,0.93
2023-09-20T09:35:47.505Z,0.88
2023-09-20T09:38:23.657Z,0.68
2023-09-20T09:40:54.543Z,0.80
2023-09-20T09:43:25.631Z,0.98
2023-09-20T09:45:56.929Z,0.73
2023-09-20T09:48:29.206Z,0.88
2023-09-20T09:51:00.002Z,0.70
2023-09-20T09:53:29.498Z,1.00
2023-09-20T09:56:00.439Z,0.77
2023-09-20T09:58:30.566Z,0.73
2023-09-20T10:00:59.968Z,1.77
2023-09-20T10:03:31.554Z,0.88
2023-09-20T10:06:10.371Z,0.60
2023-09-20T10:08:41.279Z,0.73
2023-09-20T10:11:11.182Z,1.20
2023-09-20T10:13:43.741Z,0.73
2023-09-20T10:16:14.377Z,0.70
2023-09-20T10:19:00.859Z,0.85
2023-09-20T10:21:33.591Z,0.73
2023-09-20T10:24:07.411Z,1.25
2023-09-20T10:26:37.593Z,1.03
2023-09-20T10:29:25.948Z,0.70
2023-09-20T10:32:07.674Z,0.70
2023-09-20T10:34:39.900Z,0.80
2023-09-20T10:37:11.022Z,0.98
2023-09-20T10:39:43.724Z,1.02
2023-09-20T10:42:14.638Z,0.65
2023-09-20T10:44:46.467Z,0.75
2023-09-20T10:47:17.693Z,0.60
2023-09-20T10:49:52.458Z,1.25
2023-09-20T10:52:56.258Z,0.70
2023-09-20T10:55:37.812Z,0.80
2023-09-20T10:58:06.922Z,0.70
2023-09-20T11:00:37.759Z,0.80
2023-09-20T11:03:07.841Z,0.93
2023-09-20T11:05:37.134Z,0.63
2023-09-20T11:08:09.304Z,0.82
2023-09-20T11:10:38.359Z,0.77
2023-09-20T11:13:09.850Z,0.75
2023-09-20T11:15:43.196Z,0.60
2023-09-20T11:18:12.573Z,0.97
2023-09-20T11:20:41.287Z,1.00
2023-09-20T11:23:10.834Z,0.93
2023-09-20T11:25:39.408Z,0.70
2023-09-20T11:28:09.723Z,0.68
2023-09-20T11:30:40.269Z,0.70
2023-09-20T11:33:09.467Z,0.75
2023-09-20T11:35:39.868Z,0.70
2023-09-20T11:38:11.889Z,0.80
2023-09-20T11:40:43.013Z,0.90
2023-09-20T11:43:13.505Z,0.70
2023-09-20T11:45:59.450Z,0.73
2023-09-20T11:48:29.630Z,1.00
2023-09-20T11:50:58.487Z,0.80
2023-09-20T11:53:31.346Z,0.82
2023-09-20T11:56:02.056Z,0.65
2023-09-20T11:58:35.107Z,0.88
2023-09-20T12:01:09.703Z,0.52
2023-09-20T12:03:38.745Z,0.85
2023-09-20T12:06:08.701Z,1.10
2023-09-20T12:08:37.225Z,0.90
2023-09-20T12:11:05.788Z,0.93
2023-09-20T12:13:34.362Z,0.98
2023-09-20T12:16:02.957Z,0.70
2023-09-20T12:18:32.899Z,0.73
2023-09-20T12:21:01.646Z,0.98
2023-09-20T12:23:30.265Z,0.80
2023-09-20T12:25:58.948Z,0.65
2023-09-20T12:28:27.956Z,0.73
2023-09-20T12:30:58.056Z,0.82
2023-09-20T12:33:26.787Z,0.80
2023-09-20T12:35:57.073Z,0.90
2023-09-20T12:38:30.638Z,0.95
2023-09-20T12:40:59.503Z,0.77
2023-09-20T12:43:28.148Z,0.93
2023-09-20T12:45:58.536Z,0.70
2023-09-20T12:48:27.462Z,0.70
2023-09-20T12:50:57.870Z,0.65
2023-09-20T12:53:26.566Z,0.88
2023-09-20T12:55:55.253Z,0.70
2023-09-20T12:58:23.796Z,1.08
2023-09-20T13:00:52.328Z,0.70
2023-09-20T13:03:22.003Z,1.08
2023-09-20T13:05:50.886Z,0.80
2023-09-20T13:08:22.381Z,0.90
2023-09-20T13:10:52.934Z,1.02
2023-09-20T13:13:22.780Z,0.73
2023-09-20T13:15:51.588Z,0.70
2023-09-20T13:18:20.308Z,0.70
2023-09-20T13:20:49.041Z,0.65
2023-09-20T13:23:17.851Z,0.65
2023-09-20T13:25:47.846Z,0.80
2023-09-20T13:28:16.502Z,0.90
2023-09-20T13:30:46.006Z,0.93
2023-09-20T13:33:15.484Z,0.70
2023-09-20T13:35:44.353Z,0.70
2023-09-20T13:38:13.948Z,0.70
2023-09-20T13:40:43.867Z,0.85
2023-09-20T13:43:15.325Z,0.60
2023-09-20T13:45:44.959Z,0.68
2023-09-20T13:48:16.566Z,0.73
2023-09-20T13:50:45.235Z,0.63
2023-09-20T13:53:14.769Z,1.00
2023-09-20T13:55:44.229Z,0.80
2023-09-20T13:58:14.424Z,0.93
2023-09-20T14:00:43.179Z,0.68
2023-09-20T14:03:13.592Z,0.70
2023-09-20T14:05:42.185Z,0.63
2023-09-20T14:08:10.804Z,0.80
2023-09-20T14:10:41.817Z,0.75
2023-09-20T14:13:11.415Z,0.88
2023-09-20T14:15:41.724Z,1.08
2023-09-20T14:18:10.445Z,1.05
2023-09-20T14:20:39.901Z,0.60
2023-09-20T14:23:08.590Z,1.42
2023-09-20T14:25:37.650Z,0.75
2023-09-20T14:28:06.864Z,0.88
2023-09-20T14:30:35.934Z,1.13
2023-09-20T14:33:06.173Z,1.15
2023-09-20T14:35:34.814Z,0.70
2023-09-20T14:38:03.879Z,1.00
2023-09-20T14:40:34.351Z,1.15
2023-09-20T14:43:03.489Z,0.88
2023-09-20T14:45:33.190Z,1.05
2023-09-20T14:48:03.808Z,0.82
2023-09-20T14:50:35.304Z,0.80
2023-09-20T14:53:07.224Z,1.23
2023-09-20T14:55:36.634Z,1.10
2023-09-20T14:58:06.358Z,1.30
2023-09-20T15:00:34.916Z,0.95
2023-09-20T15:03:05.078Z,0.95
2023-09-20T15:05:38.962Z,1.00
2023-09-20T15:08:09.774Z,0.90
2023-09-20T15:10:42.480Z,1.00
2023-09-20T15:13:11.022Z,1.00
2023-09-20T15:15:39.662Z,1.15
2023-09-20T15:18:08.739Z,0.90
2023-09-20T15:20:38.735Z,0.88
2023-09-20T15:23:07.581Z,0.70
2023-09-20T15:25:36.233Z,1.00
2023-09-20T15:28:04.996Z,0.95
2023-09-20T15:30:38.005Z,0.95
2023-09-20T15:33:09.463Z,1.25
2023-09-20T15:35:39.464Z,0.90
2023-09-20T15:38:09.261Z,1.27
2023-09-20T15:40:37.972Z,0.68
2023-09-20T15:43:09.098Z,0.75
2023-09-20T15:45:37.694Z,0.93
2023-09-20T15:48:07.211Z,0.75
2023-09-20T15:50:38.407Z,0.77
2023-09-20T15:53:08.390Z,0.93
2023-09-20T15:55:40.579Z,0.70
2023-09-20T15:58:09.388Z,0.80
2023-09-20T16:00:40.182Z,0.80
2023-09-20T16:03:09.013Z,0.70
2023-09-20T16:05:37.718Z,1.10
2023-09-20T16:08:08.206Z,0.80
2023-09-20T16:10:36.747Z,1.20
2023-09-20T16:13:05.517Z,1.33
2023-09-20T16:15:34.031Z,1.00
2023-09-20T16:18:04.667Z,1.10
2023-09-20T16:20:33.865Z,1.15
2023-09-20T16:23:02.918Z,1.27
2023-09-20T16:25:32.811Z,1.10
2023-09-20T16:28:01.472Z,1.50
2023-09-20T16:30:30.208Z,1.05
2023-09-20T16:33:00.259Z,1.10
2023-09-20T16:35:28.844Z,1.40
2023-09-20T16:37:57.369Z,1.35
2023-09-20T16:40:27.774Z,2.05
2023-09-20T16:42:58.470Z,1.20
2023-09-20T16:45:27.137Z,1.40
2023-09-20T16:47:55.752Z,1.33
2023-09-20T16:50:24.708Z,1.00
2023-09-20T16:52:53.325Z,1.98
2023-09-20T16:55:21.924Z,1.35
2023-09-20T16:57:51.893Z,1.50
2023-09-20T17:00:24.326Z,1.60
2023-09-20T17:02:54.832Z,2.60
2023-09-20T17:05:24.225Z,2.28
2023-09-20T17:07:53.626Z,3.10
2023-09-20T17:10:24.127Z,4.93
2023-09-20T17:12:53.335Z,4.40
2023-09-20T17:15:24.079Z,4.72
2023-09-20T17:17:52.865Z,4.95
2023-09-20T17:20:21.569Z,4.60
2023-09-20T17:22:50.690Z,4.57
2023-09-20T17:25:19.561Z,4.25
2023-09-20T17:27:48.169Z,5.35
2023-09-20T17:30:20.349Z,5.22
2023-09-20T17:32:50.928Z,4.25
2023-09-20T17:35:19.847Z,5.18
2023-09-20T17:37:48.526Z,5.57
2023-09-20T17:40:18.421Z,4.45
2023-09-20T17:42:48.076Z,4.93
2023-09-20T17:45:18.541Z,4.68
2023-09-20T17:47:48.027Z,6.05
2023-09-20T17:50:18.425Z,4.80
2023-09-20T17:52:48.687Z,5.90
2023-09-20T17:55:18.617Z,5.65
2023-09-20T17:57:50.508Z,5.40
2023-09-20T18:00:25.930Z,5.82
2023-09-20T18:02:58.356Z,5.07
2023-09-20T18:05:28.570Z,5.47
2023-09-20T18:07:57.111Z,4.78
2023-09-20T18:10:26.173Z,5.43
2023-09-20T18:12:55.257Z,4.93
2023-09-20T18:15:24.259Z,5.70
2023-09-20T18:17:53.299Z,5.45
2023-09-20T18:20:22.708Z,5.63
2023-09-20T18:22:52.965Z,5.60
2023-09-20T18:25:22.014Z,6.72
2023-09-20T18:27:51.785Z,7.07
2023-09-20T18:30:20.380Z,6.15
2023-09-20T18:32:53.204Z,6.35
2023-09-20T18:35:21.853Z,6.38
2023-09-20T18:37:50.545Z,5.93
2023-09-20T18:40:20.560Z,6.65
2023-09-20T18:42:49.186Z,5.30
2023-09-20T18:45:18.053Z,5.85
2023-09-20T18:47:46.739Z,6.18
2023-09-20T18:50:18.806Z,6.03
2023-09-20T18:52:48.370Z,5.72
2023-09-20T18:55:17.897Z,6.35
2023-09-20T18:57:52.461Z,5.55
2023-09-20T19:00:22.199Z,5.40
2023-09-20T19:02:52.028Z,5.78
2023-09-20T19:05:20.851Z,5.03
2023-09-20T19:07:51.427Z,6.72
2023-09-20T19:10:20.915Z,6.57
2023-09-20T19:12:52.858Z,4.90
2023-09-20T19:15:22.312Z,5.20
2023-09-20T19:17:51.233Z,5.97
2023-09-20T19:20:20.380Z,5.13
2023-09-20T19:22:49.077Z,4.50
2023-09-20T19:25:19.088Z,4.90
2023-09-20T19:27:49.025Z,5.10
2023-09-20T19:30:20.444Z,4.78
2023-09-20T19:32:49.620Z,5.18
2023-09-20T19:35:18.752Z,4.93
2023-09-20T19:37:47.884Z,5.63
2023-09-20T19:40:21.016Z,5.07
2023-09-20T19:42:51.774Z,4.20
2023-09-20T19:45:22.279Z,4.75
2023-09-20T19:47:50.978Z,5.15
2023-09-20T19:50:23.237Z,4.65
2023-09-20T19:52:52.104Z,5.18
2023-09-20T19:55:25.905Z,5.38
2023-09-20T19:57:56.302Z,4.88
2023-09-20T20:00:28.124Z,4.20
2023-09-20T20:02:58.257Z,4.45
2023-09-20T20:05:28.410Z,5.07
2023-09-20T20:07:58.992Z,4.05
2023-09-20T20:10:30.707Z,4.68
2023-09-20T20:12:59.479Z,4.72
2023-09-20T20:15:31.918Z,5.35
2023-09-20T20:18:01.936Z,7.30
2023-09-20T20:20:34.400Z,6.78
2023-09-20T20:23:06.386Z,8.70
2023-09-20T20:25:40.629Z,7.72
2023-09-20T20:30:44.732Z,7.57
2023-09-20T20:33:15.459Z,7.78
2023-09-20T20:35:44.372Z,6.35
2023-09-20T20:38:14.352Z,6.50
2023-09-20T20:40:43.867Z,7.28
2023-09-20T20:43:12.466Z,6.80
2023-09-20T20:45:41.843Z,6.47
2023-09-20T20:48:13.601Z,7.05
2023-09-20T20:50:44.346Z,6.53
2023-09-20T20:53:21.580Z,6.65
2023-09-20T20:55:55.656Z,7.35
2023-09-20T20:58:25.359Z,7.88
2023-09-20T21:00:57.944Z,6.80
2023-09-20T21:03:28.369Z,7.30
2023-09-20T21:05:57.110Z,5.78
2023-09-20T21:08:25.676Z,6.70
2023-09-20T21:10:54.237Z,6.47
2023-09-20T21:13:22.798Z,6.45
2023-09-20T21:15:51.499Z,6.20
2023-09-20T21:18:20.248Z,6.60
2023-09-20T21:20:52.476Z,6.43
2023-09-20T21:23:21.231Z,6.72
2023-09-20T21:25:50.127Z,6.15
2023-09-20T21:28:18.751Z,5.90
2023-09-20T21:30:49.272Z,6.63
2023-09-20T21:33:18.305Z,5.70
2023-09-20T21:35:47.276Z,4.97
2023-09-20T21:38:17.546Z,5.80
2023-09-20T21:40:46.101Z,5.22
2023-09-20T21:43:14.705Z,4.43
2023-09-20T21:45:43.212Z,5.00
2023-09-20T21:48:12.246Z,4.75
2023-09-20T21:50:41.639Z,4.95
2023-09-20T21:53:12.995Z,5.82
2023-09-20T21:55:43.300Z,4.47
2023-09-20T21:58:11.882Z,5.30
2023-09-20T22:00:41.992Z,5.13
2023-09-20T22:03:10.746Z,6.72
2023-09-20T22:05:39.472Z,5.25
2023-09-20T22:08:10.432Z,4.32
2023-09-20T22:10:51.137Z,5.45
2023-09-20T22:13:21.969Z,4.75
2023-09-20T22:15:50.563Z,3.85
2023-09-20T22:18:25.887Z,4.50
2023-09-20T22:21:01.664Z,4.63
2023-09-20T22:23:31.530Z,4.88
2023-09-20T22:26:00.244Z,4.57
2023-09-20T22:28:30.217Z,4.40
2023-09-20T22:31:01.660Z,4.30
2023-09-20T22:33:35.748Z,5.38
2023-09-20T22:36:14.149Z,4.30
2023-09-20T22:38:45.494Z,3.90
2023-09-20T22:41:16.700Z,3.67
2023-09-20T22:43:47.489Z,4.60
2023-09-20T22:46:17.831Z,3.78
2023-09-20T22:48:46.983Z,3.83
2023-09-20T22:51:17.690Z,4.25
2023-09-20T22:53:49.207Z,4.50
2023-09-20T22:56:18.299Z,5.25
2023-09-20T22:58:48.902Z,5.10
2023-09-20T23:01:19.604Z,3.83
2023-09-20T23:03:48.396Z,4.15
2023-09-20T23:06:19.574Z,3.17
2023-09-20T23:08:48.259Z,3.13
2023-09-20T23:11:16.829Z,3.13
2023-09-20T23:13:45.908Z,3.45
2023-09-20T23:16:22.895Z,4.03
2023-09-20T23:18:53.401Z,3.67
2023-09-20T23:21:22.120Z,4.00
2023-09-20T23:23:51.343Z,3.75
2023-09-20T23:26:21.247Z,3.28
2023-09-20T23:28:50.829Z,3.38
2023-09-20T23:31:21.766Z,4.32
2023-09-20T23:33:51.202Z,3.80
2023-09-20T23:36:20.153Z,3.40
2023-09-20T23:38:49.973Z,3.17
2023-09-20T23:41:19.725Z,3.00
2023-09-20T23:43:51.777Z,3.10
2023-09-20T23:46:27.746Z,3.33
2023-09-20T23:48:58.873Z,3.08
2023-09-20T23:51:27.717Z,3.60
2023-09-20T23:53:56.382Z,3.35
2023-09-20T23:56:24.958Z,3.63
2023-09-20T23:58:53.612Z,3.13
